AAL1533 MDPP-KMIA
Flight info
| Callsign | AAL1533 |
|---|---|
| Flight time | 1h 50m |
| Altitude | 36000 |
| Route | MALVN3C MALVN Y261 MADIZ VIICE2 |
| Aircraft | B38M/M-SDE1FGHILORVWXY/HB1 |
Departure
| Time | 2026-04-16 22:30 |
|---|---|
| Airport | Gregorio Luperon International Airport (MDPP) |
Arrival
| Time | 2026-04-17 00:20 |
|---|---|
| Airport | Miami International Airport (KMIA) |
| Time | Latitude | Longitude | Altitude | Speed | Heading |
|---|---|---|---|---|---|
| 2026-04-16 22:07 | 19.75612 | -70.56486 | 37 ft | 0 kts | 163° |
| 2026-04-16 22:22 | 19.75614 | -70.56486 | 37 ft | 2 kts | 163° |
| 2026-04-16 22:22 | 19.75631 | -70.56491 | 37 ft | 3 kts | 169° |
| 2026-04-16 22:22 | 19.75651 | -70.56494 | 37 ft | 3 kts | 179° |
| 2026-04-16 22:22 | 19.75671 | -70.56492 | 37 ft | 3 kts | 199° |
| 2026-04-16 22:23 | 19.75686 | -70.56483 | 37 ft | 3 kts | 238° |
| 2026-04-16 22:23 | 19.75689 | -70.56476 | 37 ft | 0 kts | 252° |
| 2026-04-16 22:25 | 19.75688 | -70.56479 | 37 ft | 1 kts | 252° |
| 2026-04-16 22:25 | 19.75683 | -70.56497 | 37 ft | 4 kts | 252° |
| 2026-04-16 22:25 | 19.75669 | -70.56546 | 37 ft | 12 kts | 252° |
| 2026-04-16 22:25 | 19.75638 | -70.56650 | 36 ft | 17 kts | 252° |
| 2026-04-16 22:26 | 19.75601 | -70.56775 | 37 ft | 19 kts | 252° |
| 2026-04-16 22:26 | 19.75560 | -70.56913 | 37 ft | 21 kts | 252° |
| 2026-04-16 22:26 | 19.75548 | -70.57062 | 34 ft | 21 kts | 313° |
| 2026-04-16 22:26 | 19.75654 | -70.57179 | 35 ft | 23 kts | 315° |
| 2026-04-16 22:27 | 19.75690 | -70.57334 | 35 ft | 24 kts | 250° |
| 2026-04-16 22:27 | 19.75639 | -70.57511 | 35 ft | 26 kts | 253° |
| 2026-04-16 22:27 | 19.75584 | -70.57699 | 35 ft | 27 kts | 253° |
| 2026-04-16 22:27 | 19.75528 | -70.57892 | 35 ft | 28 kts | 253° |
| 2026-04-16 22:28 | 19.75470 | -70.58094 | 38 ft | 29 kts | 253° |
| 2026-04-16 22:28 | 19.75420 | -70.58268 | 38 ft | 10 kts | 253° |
| 2026-04-16 22:28 | 19.75368 | -70.58323 | 38 ft | 12 kts | 229° |
| 2026-04-16 22:28 | 19.75360 | -70.58396 | 38 ft | 8 kts | 328° |
| 2026-04-16 22:29 | 19.75390 | -70.58370 | 38 ft | 0 kts | 73° |
| 2026-04-16 22:29 | 19.75401 | -70.58331 | 38 ft | 24 kts | 73° |
| 2026-04-16 22:29 | 19.75535 | -70.57865 | 38 ft | 106 kts | 73° |
| 2026-04-16 22:30 | 19.75823 | -70.56872 | 43 ft | 171 kts | 73° |
| 2026-04-16 22:30 | 19.76208 | -70.55620 | 704 ft | 182 kts | 71° |
| 2026-04-16 22:30 | 19.76620 | -70.54288 | 1394 ft | 203 kts | 74° |
| 2026-04-16 22:30 | 19.77051 | -70.52756 | 2056 ft | 224 kts | 75° |
| 2026-04-16 22:31 | 19.77582 | -70.51155 | 2996 ft | 237 kts | 63° |
| 2026-04-16 22:31 | 19.78740 | -70.49853 | 3836 ft | 254 kts | 31° |
| 2026-04-16 22:31 | 19.80493 | -70.49406 | 4742 ft | 268 kts | 356° |
| 2026-04-16 22:31 | 19.82346 | -70.49813 | 5462 ft | 281 kts | 346° |
| 2026-04-16 22:32 | 19.84269 | -70.50065 | 5544 ft | 280 kts | 11° |
| 2026-04-16 22:32 | 19.86063 | -70.49374 | 6182 ft | 281 kts | 23° |
| 2026-04-16 22:32 | 19.87923 | -70.48719 | 7181 ft | 283 kts | 18° |
| 2026-04-16 22:32 | 19.89828 | -70.48097 | 8132 ft | 288 kts | 18° |
| 2026-04-16 22:33 | 19.91763 | -70.47495 | 9102 ft | 292 kts | 12° |
| 2026-04-16 22:33 | 19.93789 | -70.47296 | 10069 ft | 295 kts | 2° |
| 2026-04-16 22:33 | 19.95887 | -70.47296 | 10660 ft | 311 kts | 352° |
| 2026-04-16 22:33 | 19.97961 | -70.48083 | 11214 ft | 325 kts | 327° |
| 2026-04-16 22:34 | 19.99600 | -70.49777 | 11856 ft | 335 kts | 302° |
| 2026-04-16 22:34 | 20.00444 | -70.52075 | 12689 ft | 337 kts | 278° |
| 2026-04-16 22:34 | 20.00556 | -70.54549 | 13433 ft | 342 kts | 271° |
| 2026-04-16 22:34 | 20.00633 | -70.57095 | 14166 ft | 346 kts | 272° |
| 2026-04-16 22:35 | 20.00713 | -70.59669 | 14828 ft | 351 kts | 272° |
| 2026-04-16 22:35 | 20.00790 | -70.62273 | 15509 ft | 354 kts | 272° |
| 2026-04-16 22:35 | 20.00868 | -70.64912 | 16132 ft | 360 kts | 273° |
| 2026-04-16 22:35 | 20.00946 | -70.67587 | 16809 ft | 362 kts | 273° |
| 2026-04-16 22:36 | 20.01023 | -70.70284 | 17438 ft | 367 kts | 274° |
| 2026-04-16 22:36 | 20.01101 | -70.73010 | 18117 ft | 369 kts | 273° |
| 2026-04-16 22:36 | 20.01180 | -70.75756 | 18645 ft | 374 kts | 273° |
| 2026-04-16 22:36 | 20.01258 | -70.78531 | 19178 ft | 377 kts | 274° |
| 2026-04-16 22:37 | 20.01337 | -70.81335 | 19683 ft | 381 kts | 273° |
| 2026-04-16 22:37 | 20.01416 | -70.84122 | 20233 ft | 383 kts | 273° |
| 2026-04-16 22:37 | 20.01496 | -70.86964 | 20752 ft | 387 kts | 273° |
| 2026-04-16 22:37 | 20.01576 | -70.89868 | 21270 ft | 390 kts | 273° |
| 2026-04-16 22:38 | 20.01655 | -70.92726 | 21749 ft | 393 kts | 273° |
| 2026-04-16 22:38 | 20.01736 | -70.95681 | 22275 ft | 396 kts | 274° |
| 2026-04-16 22:38 | 20.01815 | -70.98588 | 22724 ft | 400 kts | 274° |
| 2026-04-16 22:38 | 20.01895 | -71.01552 | 23276 ft | 401 kts | 274° |
| 2026-04-16 22:39 | 20.01976 | -71.04532 | 23721 ft | 405 kts | 273° |
| 2026-04-16 22:39 | 20.02056 | -71.07533 | 24145 ft | 407 kts | 274° |
| 2026-04-16 22:39 | 20.02381 | -71.10515 | 24537 ft | 406 kts | 288° |
| 2026-04-16 22:39 | 20.03464 | -71.13268 | 24936 ft | 404 kts | 304° |
| 2026-04-16 22:40 | 20.05248 | -71.15568 | 25274 ft | 403 kts | 320° |
| 2026-04-16 22:40 | 20.07502 | -71.17334 | 25656 ft | 403 kts | 328° |
| 2026-04-16 22:40 | 20.09866 | -71.18965 | 25993 ft | 407 kts | 329° |
| 2026-04-16 22:40 | 20.12244 | -71.20538 | 26414 ft | 408 kts | 330° |
| 2026-04-16 22:41 | 20.14675 | -71.22115 | 26807 ft | 410 kts | 330° |
| 2026-04-16 22:41 | 20.17128 | -71.23687 | 27149 ft | 413 kts | 330° |
| 2026-04-16 22:41 | 20.19599 | -71.25260 | 27538 ft | 415 kts | 330° |
| 2026-04-16 22:41 | 20.22090 | -71.26839 | 27925 ft | 417 kts | 330° |
| 2026-04-16 22:42 | 20.24590 | -71.28425 | 28285 ft | 420 kts | 330° |
| 2026-04-16 22:42 | 20.27112 | -71.30024 | 28612 ft | 423 kts | 331° |
| 2026-04-16 22:42 | 20.28821 | -71.31108 | 28872 ft | 424 kts | 330° |
| 2026-04-16 22:42 | 20.31362 | -71.32722 | 29246 ft | 426 kts | 330° |
| 2026-04-16 22:43 | 20.33881 | -71.34322 | 29560 ft | 429 kts | 330° |
| 2026-04-16 22:43 | 20.36459 | -71.35959 | 29908 ft | 431 kts | 330° |
| 2026-04-16 22:43 | 20.39037 | -71.37597 | 30261 ft | 432 kts | 330° |
| 2026-04-16 22:43 | 20.41450 | -71.39522 | 30511 ft | 437 kts | 315° |
| 2026-04-16 22:44 | 20.43321 | -71.42079 | 30820 ft | 440 kts | 306° |
| 2026-04-16 22:44 | 20.45071 | -71.44766 | 31058 ft | 443 kts | 306° |
| 2026-04-16 22:44 | 20.46821 | -71.47484 | 31332 ft | 445 kts | 306° |
| 2026-04-16 22:44 | 20.48563 | -71.50222 | 31648 ft | 446 kts | 305° |
| 2026-04-16 22:45 | 20.50299 | -71.52972 | 31911 ft | 449 kts | 305° |
| 2026-04-16 22:45 | 20.52045 | -71.55746 | 32182 ft | 450 kts | 305° |
| 2026-04-16 22:45 | 20.53792 | -71.58526 | 32435 ft | 453 kts | 306° |
| 2026-04-16 22:45 | 20.55548 | -71.61320 | 32686 ft | 455 kts | 306° |
| 2026-04-16 22:46 | 20.57316 | -71.64133 | 32975 ft | 456 kts | 306° |
| 2026-04-16 22:46 | 20.59083 | -71.66947 | 33315 ft | 456 kts | 306° |
| 2026-04-16 22:46 | 20.60848 | -71.69760 | 33675 ft | 456 kts | 306° |
| 2026-04-16 22:46 | 20.62613 | -71.72575 | 34035 ft | 455 kts | 306° |
| 2026-04-16 22:47 | 20.64352 | -71.75347 | 34353 ft | 454 kts | 306° |
| 2026-04-16 22:47 | 20.66105 | -71.78145 | 34677 ft | 453 kts | 306° |
| 2026-04-16 22:47 | 20.67855 | -71.80939 | 35002 ft | 451 kts | 307° |
| 2026-04-16 22:47 | 20.69597 | -71.83722 | 35317 ft | 450 kts | 307° |
| 2026-04-16 22:48 | 20.71332 | -71.86494 | 35628 ft | 448 kts | 307° |
| 2026-04-16 22:48 | 20.73064 | -71.89263 | 35913 ft | 447 kts | 307° |
| 2026-04-16 22:48 | 20.76510 | -71.94778 | 35998 ft | 442 kts | 308° |
| 2026-04-16 22:49 | 20.79913 | -72.00230 | 35996 ft | 441 kts | 308° |
| 2026-04-16 22:49 | 20.83324 | -72.05697 | 36007 ft | 441 kts | 308° |
| 2026-04-16 22:50 | 20.86715 | -72.11140 | 35996 ft | 439 kts | 308° |
| 2026-04-16 22:50 | 20.90083 | -72.16549 | 35996 ft | 439 kts | 308° |
| 2026-04-16 22:51 | 20.92873 | -72.20905 | 35942 ft | 437 kts | 307° |
| 2026-04-16 22:51 | 20.94517 | -72.23630 | 36099 ft | 436 kts | 308° |
| 2026-04-16 22:51 | 20.96192 | -72.26358 | 35990 ft | 439 kts | 308° |
| 2026-04-16 22:52 | 20.99544 | -72.31773 | 36006 ft | 436 kts | 308° |
| 2026-04-16 22:52 | 21.02900 | -72.37184 | 35997 ft | 436 kts | 308° |
| 2026-04-16 22:53 | 21.06232 | -72.42561 | 36002 ft | 436 kts | 308° |
| 2026-04-16 22:53 | 21.09581 | -72.47971 | 35999 ft | 436 kts | 308° |
| 2026-04-16 22:54 | 21.12931 | -72.53385 | 35999 ft | 436 kts | 308° |
| 2026-04-16 22:54 | 21.16281 | -72.58805 | 36000 ft | 436 kts | 308° |
| 2026-04-16 22:55 | 21.19606 | -72.64195 | 35998 ft | 434 kts | 309° |
| 2026-04-16 22:55 | 21.22934 | -72.69593 | 36003 ft | 434 kts | 309° |
| 2026-04-16 22:56 | 21.26260 | -72.74994 | 36004 ft | 433 kts | 309° |
| 2026-04-16 22:56 | 21.29577 | -72.80384 | 36007 ft | 433 kts | 309° |
| 2026-04-16 22:57 | 21.32904 | -72.85796 | 36004 ft | 433 kts | 309° |
| 2026-04-16 22:57 | 21.36199 | -72.91161 | 36004 ft | 433 kts | 309° |
| 2026-04-16 22:58 | 21.39516 | -72.96567 | 35995 ft | 433 kts | 309° |
| 2026-04-16 22:58 | 21.42823 | -73.01963 | 36003 ft | 432 kts | 309° |
| 2026-04-16 22:59 | 21.46125 | -73.07354 | 36005 ft | 432 kts | 309° |
| 2026-04-16 22:59 | 21.49409 | -73.12722 | 36004 ft | 432 kts | 309° |
| 2026-04-16 23:00 | 21.52708 | -73.18120 | 36023 ft | 433 kts | 309° |
| 2026-04-16 23:00 | 21.56007 | -73.23524 | 36004 ft | 432 kts | 309° |
| 2026-04-16 23:01 | 21.59302 | -73.28926 | 36007 ft | 432 kts | 309° |
| 2026-04-16 23:01 | 21.62591 | -73.34322 | 36015 ft | 431 kts | 309° |
| 2026-04-16 23:02 | 21.65882 | -73.39728 | 36004 ft | 431 kts | 309° |
| 2026-04-16 23:02 | 21.69148 | -73.45098 | 36010 ft | 431 kts | 309° |
| 2026-04-16 23:03 | 21.72429 | -73.50498 | 36009 ft | 431 kts | 309° |
| 2026-04-16 23:03 | 21.75713 | -73.55910 | 36014 ft | 431 kts | 309° |
| 2026-04-16 23:04 | 21.78992 | -73.61317 | 36018 ft | 431 kts | 309° |
| 2026-04-16 23:04 | 21.82268 | -73.66724 | 35993 ft | 431 kts | 309° |
| 2026-04-16 23:05 | 21.85546 | -73.72141 | 36008 ft | 432 kts | 309° |
| 2026-04-16 23:05 | 21.88822 | -73.77560 | 36010 ft | 432 kts | 309° |
| 2026-04-16 23:06 | 21.92098 | -73.82986 | 36013 ft | 432 kts | 309° |
| 2026-04-16 23:06 | 21.95350 | -73.88376 | 36017 ft | 432 kts | 309° |
| 2026-04-16 23:07 | 21.98620 | -73.93801 | 36019 ft | 431 kts | 309° |
| 2026-04-16 23:07 | 22.01885 | -73.99223 | 36013 ft | 431 kts | 309° |
| 2026-04-16 23:08 | 22.05146 | -74.04644 | 36010 ft | 430 kts | 309° |
| 2026-04-16 23:08 | 22.08403 | -74.10063 | 36018 ft | 430 kts | 309° |
| 2026-04-16 23:09 | 22.11655 | -74.15481 | 36017 ft | 430 kts | 309° |
| 2026-04-16 23:09 | 22.14883 | -74.20863 | 36017 ft | 430 kts | 309° |
| 2026-04-16 23:10 | 22.18129 | -74.26282 | 36019 ft | 430 kts | 309° |
| 2026-04-16 23:10 | 22.21380 | -74.31713 | 36020 ft | 430 kts | 309° |
| 2026-04-16 23:11 | 22.24627 | -74.37145 | 36008 ft | 430 kts | 309° |
| 2026-04-16 23:11 | 22.27872 | -74.42577 | 36019 ft | 429 kts | 309° |
| 2026-04-16 23:12 | 22.31089 | -74.47968 | 36018 ft | 429 kts | 309° |
| 2026-04-16 23:12 | 22.34324 | -74.53396 | 36018 ft | 429 kts | 309° |
| 2026-04-16 23:13 | 22.37561 | -74.58831 | 36017 ft | 429 kts | 309° |
| 2026-04-16 23:13 | 22.40768 | -74.64223 | 36021 ft | 429 kts | 309° |
| 2026-04-16 23:14 | 22.43996 | -74.69655 | 36021 ft | 429 kts | 309° |
| 2026-04-16 23:14 | 22.47220 | -74.75086 | 36021 ft | 429 kts | 309° |
| 2026-04-16 23:15 | 22.52055 | -74.83241 | 36029 ft | 429 kts | 309° |
| 2026-04-16 23:16 | 22.55270 | -74.88672 | 36029 ft | 429 kts | 309° |
| 2026-04-16 23:16 | 22.58464 | -74.94072 | 36029 ft | 429 kts | 308° |
| 2026-04-16 23:17 | 22.61679 | -74.99513 | 36029 ft | 429 kts | 308° |
| 2026-04-16 23:17 | 22.64892 | -75.04955 | 36029 ft | 429 kts | 308° |
| 2026-04-16 23:18 | 22.68102 | -75.10399 | 36021 ft | 429 kts | 308° |
| 2026-04-16 23:18 | 22.71312 | -75.15849 | 36026 ft | 429 kts | 308° |
| 2026-04-16 23:19 | 22.74516 | -75.21294 | 36027 ft | 428 kts | 308° |
| 2026-04-16 23:19 | 22.77714 | -75.26733 | 36029 ft | 428 kts | 308° |
| 2026-04-16 23:20 | 22.80898 | -75.32157 | 36036 ft | 428 kts | 308° |
| 2026-04-16 23:20 | 22.84094 | -75.37606 | 36034 ft | 428 kts | 308° |
| 2026-04-16 23:21 | 22.87290 | -75.43060 | 36021 ft | 428 kts | 308° |
| 2026-04-16 23:21 | 22.90476 | -75.48502 | 36032 ft | 427 kts | 308° |
| 2026-04-16 23:22 | 22.93663 | -75.53952 | 36032 ft | 427 kts | 308° |
| 2026-04-16 23:22 | 22.96847 | -75.59404 | 36036 ft | 427 kts | 308° |
| 2026-04-16 23:23 | 23.00004 | -75.64813 | 36042 ft | 427 kts | 308° |
| 2026-04-16 23:23 | 23.03185 | -75.70270 | 36039 ft | 427 kts | 308° |
| 2026-04-16 23:24 | 23.06357 | -75.75719 | 36039 ft | 427 kts | 308° |
| 2026-04-16 23:24 | 23.09534 | -75.81180 | 36032 ft | 427 kts | 308° |
| 2026-04-16 23:25 | 23.12704 | -75.86636 | 36036 ft | 426 kts | 308° |
| 2026-04-16 23:25 | 23.15848 | -75.92052 | 36039 ft | 426 kts | 308° |
| 2026-04-16 23:26 | 23.19009 | -75.97505 | 36045 ft | 426 kts | 308° |
| 2026-04-16 23:26 | 23.22169 | -76.02960 | 36045 ft | 426 kts | 308° |
| 2026-04-16 23:27 | 23.25323 | -76.08412 | 36044 ft | 426 kts | 308° |
| 2026-04-16 23:27 | 23.28483 | -76.13879 | 36044 ft | 426 kts | 308° |
| 2026-04-16 23:28 | 23.31637 | -76.19343 | 36046 ft | 426 kts | 307° |
| 2026-04-16 23:28 | 23.34790 | -76.24810 | 36047 ft | 426 kts | 307° |
| 2026-04-16 23:29 | 23.37943 | -76.30283 | 36047 ft | 426 kts | 307° |
| 2026-04-16 23:29 | 23.41072 | -76.35721 | 36048 ft | 426 kts | 307° |
| 2026-04-16 23:30 | 23.44222 | -76.41200 | 36050 ft | 426 kts | 307° |
| 2026-04-16 23:30 | 23.46855 | -76.45784 | 36050 ft | 426 kts | 307° |
| 2026-04-16 23:31 | 23.49981 | -76.51233 | 36034 ft | 426 kts | 307° |
| 2026-04-16 23:31 | 23.53115 | -76.56702 | 36050 ft | 426 kts | 307° |
| 2026-04-16 23:32 | 23.56252 | -76.62182 | 36057 ft | 426 kts | 307° |
| 2026-04-16 23:32 | 23.59383 | -76.67657 | 36059 ft | 426 kts | 307° |
| 2026-04-16 23:33 | 23.62515 | -76.73140 | 36054 ft | 426 kts | 307° |
| 2026-04-16 23:33 | 23.65630 | -76.78599 | 36056 ft | 426 kts | 307° |
| 2026-04-16 23:34 | 23.68756 | -76.84084 | 36057 ft | 426 kts | 307° |
| 2026-04-16 23:34 | 23.71884 | -76.89577 | 36056 ft | 426 kts | 307° |
| 2026-04-16 23:35 | 23.75010 | -76.95073 | 36058 ft | 426 kts | 306° |
| 2026-04-16 23:35 | 23.78133 | -77.00571 | 36059 ft | 426 kts | 306° |
| 2026-04-16 23:36 | 23.81256 | -77.06075 | 36059 ft | 426 kts | 306° |
| 2026-04-16 23:36 | 23.84374 | -77.11575 | 36061 ft | 426 kts | 306° |
| 2026-04-16 23:37 | 23.87488 | -77.17075 | 36062 ft | 426 kts | 306° |
| 2026-04-16 23:37 | 23.90583 | -77.22548 | 36064 ft | 426 kts | 306° |
| 2026-04-16 23:38 | 23.93695 | -77.28055 | 36062 ft | 426 kts | 306° |
| 2026-04-16 23:38 | 23.96806 | -77.33568 | 36066 ft | 426 kts | 306° |
| 2026-04-16 23:39 | 23.99915 | -77.39082 | 36071 ft | 426 kts | 306° |
| 2026-04-16 23:39 | 24.03025 | -77.44604 | 36069 ft | 426 kts | 306° |
| 2026-04-16 23:40 | 24.06128 | -77.50118 | 36069 ft | 426 kts | 306° |
| 2026-04-16 23:40 | 24.09232 | -77.55641 | 36070 ft | 426 kts | 306° |
| 2026-04-16 23:41 | 24.12332 | -77.61163 | 36054 ft | 426 kts | 306° |
| 2026-04-16 23:41 | 24.15410 | -77.66652 | 36079 ft | 426 kts | 306° |
| 2026-04-16 23:42 | 24.18504 | -77.72175 | 36079 ft | 426 kts | 306° |
| 2026-04-16 23:42 | 24.21599 | -77.77707 | 36078 ft | 425 kts | 306° |
| 2026-04-16 23:43 | 24.24690 | -77.83235 | 36079 ft | 425 kts | 306° |
| 2026-04-16 23:43 | 24.27875 | -77.88705 | 36084 ft | 424 kts | 308° |
| 2026-04-16 23:44 | 24.31183 | -77.94061 | 36083 ft | 424 kts | 308° |
| 2026-04-16 23:44 | 24.34482 | -77.99432 | 36080 ft | 424 kts | 307° |
| 2026-04-16 23:45 | 24.37778 | -78.04805 | 36080 ft | 424 kts | 307° |
| 2026-04-16 23:45 | 24.41048 | -78.10144 | 36081 ft | 424 kts | 307° |
| 2026-04-16 23:46 | 24.44338 | -78.15520 | 36085 ft | 424 kts | 307° |
| 2026-04-16 23:46 | 24.47627 | -78.20900 | 36083 ft | 424 kts | 307° |
| 2026-04-16 23:47 | 24.50913 | -78.26281 | 36082 ft | 424 kts | 307° |
| 2026-04-16 23:47 | 24.54198 | -78.31667 | 36083 ft | 424 kts | 307° |
| 2026-04-16 23:48 | 24.57478 | -78.37051 | 36084 ft | 424 kts | 307° |
| 2026-04-16 23:48 | 24.60754 | -78.42431 | 36086 ft | 424 kts | 307° |
| 2026-04-16 23:49 | 24.64008 | -78.47785 | 36091 ft | 423 kts | 307° |
| 2026-04-16 23:49 | 24.67280 | -78.53172 | 36089 ft | 424 kts | 307° |
| 2026-04-16 23:50 | 24.70551 | -78.58564 | 36093 ft | 424 kts | 307° |
| 2026-04-16 23:50 | 24.73827 | -78.63972 | 36094 ft | 424 kts | 307° |
| 2026-04-16 23:51 | 24.77096 | -78.69371 | 36085 ft | 424 kts | 307° |
| 2026-04-16 23:51 | 24.78693 | -78.72011 | 36077 ft | 412 kts | 307° |
| 2026-04-16 23:51 | 24.80255 | -78.74592 | 36003 ft | 398 kts | 307° |
| 2026-04-16 23:51 | 24.81778 | -78.77110 | 35689 ft | 392 kts | 307° |
| 2026-04-16 23:52 | 24.83286 | -78.79604 | 35192 ft | 391 kts | 307° |
| 2026-04-16 23:52 | 24.84794 | -78.82099 | 34635 ft | 391 kts | 306° |
| 2026-04-16 23:52 | 24.86301 | -78.84593 | 34136 ft | 391 kts | 306° |
| 2026-04-16 23:52 | 24.87807 | -78.87086 | 33594 ft | 390 kts | 306° |
| 2026-04-16 23:53 | 24.89305 | -78.89569 | 33104 ft | 388 kts | 306° |
| 2026-04-16 23:53 | 24.90793 | -78.92036 | 32634 ft | 385 kts | 306° |
| 2026-04-16 23:53 | 24.92273 | -78.94491 | 32181 ft | 383 kts | 306° |
| 2026-04-16 23:53 | 24.93742 | -78.96928 | 31737 ft | 381 kts | 306° |
| 2026-04-16 23:54 | 24.95187 | -78.99328 | 31293 ft | 379 kts | 306° |
| 2026-04-16 23:54 | 24.96642 | -79.01745 | 30855 ft | 377 kts | 306° |
| 2026-04-16 23:54 | 24.98088 | -79.04147 | 30424 ft | 375 kts | 306° |
| 2026-04-16 23:54 | 24.99529 | -79.06544 | 29960 ft | 374 kts | 306° |
| 2026-04-16 23:55 | 25.00960 | -79.08925 | 29486 ft | 372 kts | 306° |
| 2026-04-16 23:55 | 25.02386 | -79.11299 | 29046 ft | 369 kts | 306° |
| 2026-04-16 23:55 | 25.03803 | -79.13659 | 28442 ft | 370 kts | 306° |
| 2026-04-16 23:55 | 25.05243 | -79.16059 | 27849 ft | 381 kts | 306° |
| 2026-04-16 23:56 | 25.06736 | -79.18547 | 27244 ft | 395 kts | 306° |
| 2026-04-16 23:56 | 25.08263 | -79.21095 | 26631 ft | 400 kts | 306° |
| 2026-04-16 23:56 | 25.09801 | -79.23661 | 26021 ft | 403 kts | 306° |
| 2026-04-16 23:56 | 25.11325 | -79.26208 | 25397 ft | 404 kts | 306° |
| 2026-04-16 23:57 | 25.12883 | -79.28809 | 24759 ft | 407 kts | 306° |
| 2026-04-16 23:57 | 25.14451 | -79.31431 | 24103 ft | 411 kts | 305° |
| 2026-04-16 23:57 | 25.16030 | -79.34072 | 23385 ft | 414 kts | 306° |
| 2026-04-16 23:57 | 25.17623 | -79.36738 | 22615 ft | 417 kts | 305° |
| 2026-04-16 23:58 | 25.19225 | -79.39420 | 21920 ft | 418 kts | 305° |
| 2026-04-16 23:58 | 25.20826 | -79.42102 | 21320 ft | 417 kts | 305° |
| 2026-04-16 23:58 | 25.22414 | -79.44766 | 20869 ft | 413 kts | 306° |
| 2026-04-16 23:58 | 25.23985 | -79.47400 | 20409 ft | 408 kts | 305° |
| 2026-04-16 23:59 | 25.25540 | -79.50009 | 19971 ft | 405 kts | 305° |
| 2026-04-16 23:59 | 25.27080 | -79.52595 | 19523 ft | 402 kts | 305° |
| 2026-04-16 23:59 | 25.28608 | -79.55164 | 19081 ft | 399 kts | 304° |
| 2026-04-16 23:59 | 25.30123 | -79.57710 | 18645 ft | 392 kts | 304° |
| 2026-04-17 00:00 | 25.31605 | -79.60202 | 18192 ft | 384 kts | 304° |
| 2026-04-17 00:00 | 25.33050 | -79.62636 | 17754 ft | 371 kts | 304° |
| 2026-04-17 00:00 | 25.34450 | -79.64990 | 17311 ft | 365 kts | 305° |
| 2026-04-17 00:00 | 25.35827 | -79.67310 | 16852 ft | 365 kts | 304° |
| 2026-04-17 00:01 | 25.37217 | -79.69654 | 16412 ft | 363 kts | 305° |
| 2026-04-17 00:01 | 25.38602 | -79.71980 | 16026 ft | 360 kts | 307° |
| 2026-04-17 00:01 | 25.40044 | -79.74227 | 15656 ft | 357 kts | 308° |
| 2026-04-17 00:01 | 25.41478 | -79.76455 | 15323 ft | 354 kts | 308° |
| 2026-04-17 00:02 | 25.42894 | -79.78665 | 14988 ft | 351 kts | 308° |
| 2026-04-17 00:02 | 25.44296 | -79.80861 | 14644 ft | 348 kts | 308° |
| 2026-04-17 00:02 | 25.45693 | -79.83049 | 14305 ft | 348 kts | 308° |
| 2026-04-17 00:02 | 25.47088 | -79.85235 | 13960 ft | 347 kts | 307° |
| 2026-04-17 00:03 | 25.48481 | -79.87414 | 13556 ft | 346 kts | 307° |
| 2026-04-17 00:03 | 25.49875 | -79.89587 | 13144 ft | 344 kts | 307° |
| 2026-04-17 00:03 | 25.51254 | -79.91742 | 12805 ft | 340 kts | 307° |
| 2026-04-17 00:03 | 25.52612 | -79.93863 | 12472 ft | 336 kts | 307° |
| 2026-04-17 00:04 | 25.53935 | -79.95932 | 12132 ft | 328 kts | 308° |
| 2026-04-17 00:04 | 25.55239 | -79.97970 | 11821 ft | 314 kts | 308° |
| 2026-04-17 00:04 | 25.56461 | -79.99882 | 11516 ft | 302 kts | 307° |
| 2026-04-17 00:04 | 25.57668 | -80.01770 | 11214 ft | 300 kts | 307° |
| 2026-04-17 00:05 | 25.58875 | -80.03659 | 10894 ft | 300 kts | 307° |
| 2026-04-17 00:05 | 25.60077 | -80.05540 | 10532 ft | 296 kts | 306° |
| 2026-04-17 00:05 | 25.61249 | -80.07378 | 10200 ft | 287 kts | 306° |
| 2026-04-17 00:05 | 25.62393 | -80.09171 | 9868 ft | 284 kts | 306° |
| 2026-04-17 00:06 | 25.63532 | -80.10956 | 9516 ft | 283 kts | 306° |
| 2026-04-17 00:06 | 25.64663 | -80.12733 | 9185 ft | 281 kts | 306° |
| 2026-04-17 00:06 | 25.65721 | -80.14546 | 8904 ft | 280 kts | 297° |
| 2026-04-17 00:06 | 25.66539 | -80.16509 | 8634 ft | 280 kts | 295° |
| 2026-04-17 00:07 | 25.67361 | -80.18457 | 8381 ft | 279 kts | 296° |
| 2026-04-17 00:07 | 25.68195 | -80.20396 | 8139 ft | 278 kts | 297° |
| 2026-04-17 00:07 | 25.69019 | -80.22333 | 7915 ft | 279 kts | 296° |
| 2026-04-17 00:07 | 25.69837 | -80.24288 | 7633 ft | 279 kts | 295° |
| 2026-04-17 00:08 | 25.70659 | -80.26234 | 7339 ft | 278 kts | 295° |
| 2026-04-17 00:08 | 25.71152 | -80.28284 | 7035 ft | 277 kts | 271° |
| 2026-04-17 00:08 | 25.71087 | -80.30379 | 6778 ft | 274 kts | 268° |
| 2026-04-17 00:08 | 25.71007 | -80.32481 | 6518 ft | 272 kts | 267° |
| 2026-04-17 00:09 | 25.70919 | -80.34573 | 6250 ft | 272 kts | 267° |
| 2026-04-17 00:09 | 25.70825 | -80.36675 | 5976 ft | 273 kts | 266° |
| 2026-04-17 00:09 | 25.70727 | -80.38779 | 5707 ft | 273 kts | 266° |
| 2026-04-17 00:09 | 25.70629 | -80.40876 | 5435 ft | 271 kts | 266° |
| 2026-04-17 00:10 | 25.70530 | -80.42947 | 5166 ft | 268 kts | 266° |
| 2026-04-17 00:10 | 25.70399 | -80.44993 | 5015 ft | 265 kts | 264° |
| 2026-04-17 00:10 | 25.70237 | -80.47032 | 4957 ft | 266 kts | 263° |
| 2026-04-17 00:10 | 25.70076 | -80.49043 | 4866 ft | 257 kts | 263° |
| 2026-04-17 00:11 | 25.69923 | -80.50980 | 4780 ft | 247 kts | 264° |
| 2026-04-17 00:11 | 25.69775 | -80.52842 | 4682 ft | 237 kts | 263° |
| 2026-04-17 00:11 | 25.69633 | -80.54599 | 4559 ft | 223 kts | 266° |
| 2026-04-17 00:11 | 25.69497 | -80.56255 | 4321 ft | 213 kts | 267° |
| 2026-04-17 00:12 | 25.69368 | -80.57873 | 4114 ft | 203 kts | 266° |
| 2026-04-17 00:12 | 25.69330 | -80.59383 | 3862 ft | 191 kts | 283° |
| 2026-04-17 00:12 | 25.69957 | -80.60587 | 3560 ft | 178 kts | 324° |
| 2026-04-17 00:12 | 25.71088 | -80.61057 | 3122 ft | 174 kts | 0° |
| 2026-04-17 00:13 | 25.72257 | -80.61040 | 3038 ft | 170 kts | 11° |
| 2026-04-17 00:13 | 25.73381 | -80.60648 | 3006 ft | 171 kts | 36° |
| 2026-04-17 00:13 | 25.74341 | -80.59866 | 3030 ft | 173 kts | 40° |
| 2026-04-17 00:13 | 25.75291 | -80.59042 | 3033 ft | 173 kts | 42° |
| 2026-04-17 00:14 | 25.76124 | -80.58093 | 2992 ft | 171 kts | 52° |
| 2026-04-17 00:14 | 25.76873 | -80.57063 | 2998 ft | 171 kts | 53° |
| 2026-04-17 00:14 | 25.77442 | -80.55918 | 2982 ft | 169 kts | 73° |
| 2026-04-17 00:14 | 25.77641 | -80.54637 | 3000 ft | 168 kts | 85° |
| 2026-04-17 00:15 | 25.77703 | -80.53340 | 2992 ft | 169 kts | 86° |
| 2026-04-17 00:15 | 25.77755 | -80.52034 | 2997 ft | 170 kts | 87° |
| 2026-04-17 00:15 | 25.77809 | -80.50718 | 2998 ft | 170 kts | 86° |
| 2026-04-17 00:15 | 25.77863 | -80.49411 | 2997 ft | 170 kts | 86° |
| 2026-04-17 00:16 | 25.77918 | -80.48107 | 3009 ft | 168 kts | 86° |
| 2026-04-17 00:16 | 25.77973 | -80.46810 | 2957 ft | 170 kts | 86° |
| 2026-04-17 00:16 | 25.78031 | -80.45502 | 2688 ft | 171 kts | 86° |
| 2026-04-17 00:16 | 25.78088 | -80.44188 | 2361 ft | 169 kts | 86° |
| 2026-04-17 00:17 | 25.78139 | -80.42915 | 2119 ft | 159 kts | 85° |
| 2026-04-17 00:17 | 25.78186 | -80.41739 | 1892 ft | 148 kts | 86° |
| 2026-04-17 00:17 | 25.78227 | -80.40611 | 1683 ft | 145 kts | 85° |
| 2026-04-17 00:17 | 25.78271 | -80.39501 | 1463 ft | 143 kts | 85° |
| 2026-04-17 00:18 | 25.78307 | -80.38770 | 1330 ft | 144 kts | 85° |
| 2026-04-17 00:18 | 25.78346 | -80.38021 | 1206 ft | 145 kts | 85° |
| 2026-04-17 00:18 | 25.78393 | -80.36913 | 1044 ft | 143 kts | 86° |
| 2026-04-17 00:18 | 25.78425 | -80.35812 | 842 ft | 144 kts | 86° |
| 2026-04-17 00:19 | 25.78478 | -80.34709 | 670 ft | 143 kts | 86° |
| 2026-04-17 00:19 | 25.78526 | -80.33618 | 464 ft | 141 kts | 85° |
| 2026-04-17 00:19 | 25.78569 | -80.32513 | 271 ft | 144 kts | 86° |
| 2026-04-17 00:19 | 25.78616 | -80.31410 | 98 ft | 143 kts | 85° |
| 2026-04-17 00:20 | 25.78657 | -80.30374 | 18 ft | 111 kts | 88° |
| 2026-04-17 00:20 | 25.78683 | -80.29751 | 18 ft | 58 kts | 88° |
| 2026-04-17 00:20 | 25.78701 | -80.29373 | 17 ft | 39 kts | 83° |
| 2026-04-17 00:20 | 25.78786 | -80.29176 | 17 ft | 12 kts | 40° |
| 2026-04-17 00:21 | 25.78802 | -80.29152 | 17 ft | 5 kts | 59° |
| 2026-04-17 00:21 | 25.78818 | -80.29107 | 17 ft | 9 kts | 79° |
| 2026-04-17 00:21 | 25.78835 | -80.28978 | 17 ft | 25 kts | 74° |
| 2026-04-17 00:21 | 25.78868 | -80.28750 | 17 ft | 34 kts | 87° |
| 2026-04-17 00:22 | 25.78975 | -80.28547 | 17 ft | 7 kts | 34° |
| 2026-04-17 00:22 | 25.79031 | -80.28503 | 17 ft | 14 kts | 36° |
| 2026-04-17 00:22 | 25.79160 | -80.28415 | 17 ft | 27 kts | 27° |
| 2026-04-17 00:23 | 25.79276 | -80.28522 | 17 ft | 27 kts | 299° |
| 2026-04-17 00:23 | 25.79390 | -80.28745 | 17 ft | 39 kts | 300° |
| 2026-04-17 00:23 | 25.79508 | -80.28805 | 17 ft | 16 kts | 349° |
| 2026-04-17 00:23 | 25.79643 | -80.28812 | 17 ft | 27 kts | 357° |
| 2026-04-17 00:24 | 25.79760 | -80.28803 | 17 ft | 4 kts | 76° |
| 2026-04-17 00:24 | 25.79733 | -80.28790 | 19 ft | 8 kts | 191° |
| 2026-04-17 00:24 | 25.79652 | -80.28832 | 17 ft | 11 kts | 205° |
| 2026-04-17 00:24 | 25.79637 | -80.28831 | 17 ft | 5 kts | 151° |
| 2026-04-17 00:25 | 25.79639 | -80.28761 | 17 ft | 13 kts | 85° |
| 2026-04-17 00:25 | 25.79649 | -80.28647 | 17 ft | 18 kts | 84° |
| 2026-04-17 00:25 | 25.79665 | -80.28505 | 17 ft | 21 kts | 82° |
| 2026-04-17 00:25 | 25.79674 | -80.28330 | 17 ft | 24 kts | 88° |
| 2026-04-17 00:26 | 25.79633 | -80.28170 | 17 ft | 15 kts | 110° |
| 2026-04-17 00:26 | 25.79627 | -80.28113 | 17 ft | 3 kts | 12° |
| 2026-04-17 00:26 | 25.79654 | -80.28106 | 17 ft | 3 kts | 17° |
| 2026-04-17 00:26 | 25.79662 | -80.28103 | 17 ft | 0 kts | 16° |
| 2026-04-17 00:27 | 25.79664 | -80.28102 | 17 ft | 0 kts | 16° |